Time;durP1;ratioP1;P1;durP2;ratioP2;P2;SDS_P1;SDS_P2;PMS_P1;PMS_P2;Temp;Humidity;BMP_temperature;BMP_pressure;BME280_temperature;BME280_humidity;BME280_pressure;Samples;Min_cycle;Max_cycle;Signal;HPM_P1;HPM_P2
2023/02/12 00:01:42;;;;;;;22.20;10.73;;;;;;;;;;5014228;28;20030;-77
2023/02/12 00:04:07;;;;;;;22.00;10.80;;;;;;;;;;5028839;28;20108;-77
2023/02/12 00:06:34;;;;;;;18.60;9.90;;;;;;;;;;5012643;28;20033;-77
2023/02/12 00:09:00;;;;;;;22.73;11.30;;;;;;;;;;5012194;28;20021;-76
2023/02/12 00:11:27;;;;;;;20.90;10.00;;;;;;;;;;5012201;28;20037;-77
2023/02/12 00:13:54;;;;;;;20.83;10.93;;;;;;;;;;5011950;28;20022;-77
2023/02/12 00:16:22;;;;;;;17.63;9.13;;;;;;;;;;4995679;28;20040;-77
2023/02/12 00:18:52;;;;;;;20.40;9.57;;;;;;;;;;5013244;28;20030;-74
2023/02/12 00:21:17;;;;;;;18.07;10.03;;;;;;;;;;5011922;28;20545;-77
2023/02/12 00:23:43;;;;;;;20.17;10.73;;;;;;;;;;5028348;28;20148;-75
2023/02/12 00:26:11;;;;;;;19.60;9.77;;;;;;;;;;5012928;28;20064;-79
2023/02/12 00:28:37;;;;;;;20.20;10.50;;;;;;;;;;5013197;28;20026;-77
2023/02/12 00:31:15;;;;;;;25.80;10.60;;;;;;;;;;5011864;28;20107;-77
2023/02/12 00:33:42;;;;;;;17.27;8.50;;;;;;;;;;5012896;28;20149;-78
2023/02/12 00:36:08;;;;;;;19.67;10.57;;;;;;;;;;4995258;28;20481;-77
2023/02/12 00:38:34;;;;;;;22.50;10.83;;;;;;;;;;5013112;28;20025;-77
2023/02/12 00:41:00;;;;;;;20.03;9.97;;;;;;;;;;5013495;28;20044;-78
2023/02/12 00:43:25;;;;;;;20.10;10.27;;;;;;;;;;5011295;28;20029;-77
2023/02/12 00:45:51;;;;;;;18.30;9.03;;;;;;;;;;5011674;28;20017;-77
2023/02/12 00:48:17;;;;;;;17.97;9.10;;;;;;;;;;5011207;28;20045;-76
2023/02/12 00:50:46;;;;;;;19.53;9.40;;;;;;;;;;5012812;28;20026;-77
2023/02/12 00:53:13;;;;;;;15.30;8.60;;;;;;;;;;5012987;28;20493;-78
2023/02/12 00:55:39;;;;;;;16.80;9.13;;;;;;;;;;5012639;28;20018;-76
2023/02/12 00:58:05;;;;;;;16.63;9.20;;;;;;;;;;5012485;28;20053;-76
2023/02/12 01:00:31;;;;;;;16.60;9.63;;;;;;;;;;5011129;28;20068;-76
2023/02/12 01:02:56;;;;;;;14.03;8.23;;;;;;;;;;5011352;28;20030;-78
2023/02/12 01:05:22;;;;;;;17.03;9.00;;;;;;;;;;5011026;28;20498;-77
2023/02/12 01:07:51;;;;;;;14.23;7.23;;;;;;;;;;5012310;28;20375;-77
2023/02/12 01:10:19;;;;;;;16.10;7.37;;;;;;;;;;5010888;28;20033;-76
2023/02/12 01:12:45;;;;;;;16.80;7.77;;;;;;;;;;5012819;28;20018;-76
2023/02/12 01:15:12;;;;;;;12.03;7.33;;;;;;;;;;5012129;28;20329;-75
2023/02/12 01:17:37;;;;;;;12.73;6.43;;;;;;;;;;5011101;28;20030;-76
2023/02/12 01:20:06;;;;;;;13.40;6.40;;;;;;;;;;5012582;28;20401;-77
2023/02/12 01:22:34;;;;;;;13.13;6.90;;;;;;;;;;5011636;28;20021;-76
2023/02/12 01:25:00;;;;;;;11.80;6.17;;;;;;;;;;4995376;28;20038;-76
2023/02/12 01:27:25;;;;;;;9.73;5.47;;;;;;;;;;5011783;28;20368;-76
2023/02/12 01:29:51;;;;;;;12.00;6.53;;;;;;;;;;5010767;28;20482;-76
2023/02/12 01:32:17;;;;;;;11.33;6.30;;;;;;;;;;5010709;28;20033;-77
2023/02/12 01:34:43;;;;;;;12.23;5.93;;;;;;;;;;5011591;28;20022;-76
2023/02/12 01:37:08;;;;;;;13.90;5.57;;;;;;;;;;5010296;28;20440;-77
2023/02/12 01:39:34;;;;;;;13.00;6.60;;;;;;;;;;5025062;28;20635;-76
2023/02/12 01:42:00;;;;;;;12.37;5.80;;;;;;;;;;5030052;28;20029;-77
2023/02/12 01:44:31;;;;;;;8.33;5.00;;;;;;;;;;5030948;28;20033;-76
2023/02/12 01:47:00;;;;;;;12.52;5.65;;;;;;;;;;5031687;28;20150;-77
2023/02/12 01:49:37;;;;;;;11.80;6.17;;;;;;;;;;5029541;28;20108;-78
2023/02/12 01:52:22;;;;;;;19.77;7.47;;;;;;;;;;5029749;28;20049;-76
2023/02/12 01:54:50;;;;;;;12.20;6.87;;;;;;;;;;5029937;28;20112;-78
2023/02/12 01:57:17;;;;;;;13.17;6.87;;;;;;;;;;5029386;28;20114;-77
2023/02/12 01:59:44;;;;;;;11.93;7.20;;;;;;;;;;5029797;28;20604;-78
2023/02/12 02:02:10;;;;;;;13.03;5.80;;;;;;;;;;5029749;28;20492;-77
2023/02/12 02:04:40;;;;;;;17.57;7.40;;;;;;;;;;5029742;28;20048;-76
2023/02/12 02:07:08;;;;;;;14.73;7.53;;;;;;;;;;5029580;28;20080;-79
2023/02/12 02:09:36;;;;;;;12.47;6.93;;;;;;;;;;5030183;28;20052;-77
2023/02/12 02:14:48;;;;;;;12.43;7.37;;;;;;;;;;5031100;28;20024;-76
2023/02/12 02:17:26;;;;;;;12.37;7.33;;;;;;;;;;5029597;28;20063;-76
2023/02/12 02:20:10;;;;;;;21.63;7.37;;;;;;;;;;5029327;28;20075;-77
2023/02/12 02:22:42;;;;;;;15.17;6.70;;;;;;;;;;5029265;28;20037;-77
2023/02/12 02:25:42;;;;;;;11.48;6.65;;;;;;;;;;5028876;28;20025;-79
2023/02/12 02:28:29;;;;;;;14.23;6.87;;;;;;;;;;5030589;28;20018;-79
2023/02/12 02:31:04;;;;;;;11.83;6.40;;;;;;;;;;5030701;28;20030;-77
2023/02/12 02:33:41;;;;;;;13.47;6.63;;;;;;;;;;5028689;28;20136;-77
2023/02/12 02:36:15;;;;;;;13.13;7.10;;;;;;;;;;5029269;28;20031;-79
2023/02/12 02:38:56;;;;;;;13.63;6.97;;;;;;;;;;5022556;28;20033;-78
2023/02/12 02:41:35;;;;;;;11.03;6.80;;;;;;;;;;5009718;28;20029;-77
2023/02/12 02:44:06;;;;;;;12.10;6.30;;;;;;;;;;5010152;28;20501;-77
2023/02/12 02:46:42;;;;;;;11.75;6.00;;;;;;;;;;5009484;28;20044;-77
2023/02/12 02:49:18;;;;;;;14.13;6.37;;;;;;;;;;5010940;28;20034;-76
2023/02/12 02:51:48;;;;;;;13.03;7.07;;;;;;;;;;5009597;28;20029;-76
2023/02/12 02:54:34;;;;;;;9.57;6.37;;;;;;;;;;5009990;28;20528;-77
2023/02/12 02:57:15;;;;;;;18.40;7.63;;;;;;;;;;5010327;28;20125;-77
2023/02/12 02:59:47;;;;;;;14.87;7.67;;;;;;;;;;5010789;28;20026;-77
2023/02/12 03:02:29;;;;;;;10.95;6.45;;;;;;;;;;5025445;28;20473;-77
2023/02/12 03:05:00;;;;;;;13.77;6.78;;;;;;;;;;5025794;28;20125;-75
2023/02/12 03:07:34;;;;;;;11.55;6.38;;;;;;;;;;5009038;28;20049;-76
2023/02/12 03:10:22;;;;;;;13.07;6.50;;;;;;;;;;5009129;28;20038;-76
2023/02/12 03:13:10;;;;;;;12.60;6.23;;;;;;;;;;4996915;28;20026;-79
2023/02/12 03:15:59;;;;;;;14.73;6.33;;;;;;;;;;5009125;28;20087;-76
2023/02/12 03:18:30;;;;;;;10.17;5.70;;;;;;;;;;5009108;28;20021;-77
2023/02/12 03:21:15;;;;;;;13.90;6.65;;;;;;;;;;5010355;28;20022;-76
2023/02/12 03:23:49;;;;;;;10.50;5.97;;;;;;;;;;5008539;28;20073;-76
2023/02/12 03:26:29;;;;;;;12.97;6.93;;;;;;;;;;5010029;28;20036;-77
2023/02/12 03:28:55;;;;;;;12.33;7.20;;;;;;;;;;5009610;28;20030;-77
2023/02/12 03:31:32;;;;;;;14.20;7.17;;;;;;;;;;5010299;28;20428;-77
2023/02/12 03:34:15;;;;;;;13.27;7.17;;;;;;;;;;5010795;28;20053;-77
2023/02/12 03:37:11;;;;;;;13.03;6.70;;;;;;;;;;5010796;28;20087;-77
2023/02/12 03:39:48;;;;;;;12.20;6.97;;;;;;;;;;5025810;28;20099;-77
2023/02/12 03:42:43;;;;;;;12.60;6.40;;;;;;;;;;5028126;28;20061;-76
2023/02/12 03:45:36;;;;;;;11.13;5.83;;;;;;;;;;5028479;28;20037;-77
2023/02/12 03:48:12;;;;;;;11.00;6.00;;;;;;;;;;5030059;28;20068;-77
2023/02/12 03:50:56;;;;;;;10.60;5.97;;;;;;;;;;5028099;28;20037;-76
2023/02/12 03:53:23;;;;;;;11.07;6.33;;;;;;;;;;5028189;28;20128;-76
2023/02/12 03:55:57;;;;;;;13.20;6.33;;;;;;;;;;5029608;28;20029;-76
2023/02/12 03:58:26;;;;;;;14.40;6.77;;;;;;;;;;5029349;28;20108;-77
2023/02/12 04:00:52;;;;;;;13.10;6.33;;;;;;;;;;5028214;28;20029;-75
2023/02/12 04:03:18;;;;;;;12.47;6.17;;;;;;;;;;5027734;28;20049;-76
2023/02/12 04:05:45;;;;;;;14.10;6.80;;;;;;;;;;5031970;28;20045;-76
2023/02/12 04:08:11;;;;;;;11.57;5.93;;;;;;;;;;5032069;28;20082;-76
2023/02/12 04:11:05;;;;;;;14.43;7.00;;;;;;;;;;5027957;28;20037;-76
2023/02/12 04:13:52;;;;;;;12.47;6.70;;;;;;;;;;5012048;28;20025;-76
2023/02/12 04:16:42;;;;;;;16.60;6.57;;;;;;;;;;5012931;28;20044;-76
2023/02/12 04:19:11;;;;;;;11.97;6.03;;;;;;;;;;5013143;28;20473;-76
2023/02/12 04:22:01;;;;;;;12.63;6.10;;;;;;;;;;5028474;28;20037;-77
2023/02/12 04:24:37;;;;;;;10.37;5.73;;;;;;;;;;5013153;28;20386;-77
2023/02/12 04:27:13;;;;;;;10.50;5.60;;;;;;;;;;5013560;28;20030;-75
2023/02/12 04:29:54;;;;;;;11.53;6.03;;;;;;;;;;5013409;28;20339;-76
2023/02/12 04:32:29;;;;;;;13.13;6.83;;;;;;;;;;5012588;28;20401;-78
2023/02/12 04:35:07;;;;;;;15.93;7.03;;;;;;;;;;5012786;28;20050;-76
2023/02/12 04:37:43;;;;;;;11.83;5.87;;;;;;;;;;5011599;28;20033;-76
2023/02/12 04:40:13;;;;;;;16.83;6.90;;;;;;;;;;5012417;28;20057;-76
2023/02/12 04:42:48;;;;;;;10.93;5.90;;;;;;;;;;5024787;28;20098;-76
2023/02/12 04:45:19;;;;;;;11.33;6.07;;;;;;;;;;5032230;28;20037;-75
2023/02/12 04:47:46;;;;;;;12.90;6.28;;;;;;;;;;5030948;28;20061;-76
2023/02/12 04:50:13;;;;;;;10.93;6.17;;;;;;;;;;5031175;28;20034;-76
2023/02/12 04:52:38;;;;;;;14.80;6.67;;;;;;;;;;5032314;28;20032;-77
2023/02/12 04:55:04;;;;;;;12.70;6.40;;;;;;;;;;5031053;28;20112;-77
2023/02/12 04:57:30;;;;;;;10.80;5.70;;;;;;;;;;5032193;28;20033;-77
2023/02/12 04:59:56;;;;;;;14.10;6.43;;;;;;;;;;5030916;28;20029;-77
2023/02/12 05:02:22;;;;;;;12.23;6.37;;;;;;;;;;5030886;28;20021;-77
2023/02/12 05:04:49;;;;;;;13.67;6.57;;;;;;;;;;5030717;28;20039;-76
2023/02/12 05:07:15;;;;;;;14.83;7.17;;;;;;;;;;5030658;28;20021;-77
2023/02/12 05:09:41;;;;;;;13.53;6.40;;;;;;;;;;5031252;28;20025;-77
2023/02/12 05:12:06;;;;;;;13.70;6.70;;;;;;;;;;5032185;28;20033;-77
2023/02/12 05:14:32;;;;;;;13.60;6.20;;;;;;;;;;5032142;28;20026;-76
2023/02/12 05:16:57;;;;;;;13.27;6.07;;;;;;;;;;5030595;28;20025;-77
2023/02/12 05:19:23;;;;;;;14.10;7.27;;;;;;;;;;5031702;28;20409;-76
2023/02/12 05:21:49;;;;;;;12.50;5.73;;;;;;;;;;5032052;28;20071;-76
2023/02/12 05:24:15;;;;;;;10.77;6.30;;;;;;;;;;5030398;28;20033;-76
2023/02/12 05:26:42;;;;;;;14.80;7.33;;;;;;;;;;5031907;28;20026;-77
2023/02/12 05:29:08;;;;;;;16.93;8.07;;;;;;;;;;5032277;28;20070;-75
2023/02/12 05:31:33;;;;;;;13.47;6.57;;;;;;;;;;5031643;28;20475;-77
2023/02/12 05:33:59;;;;;;;11.50;6.10;;;;;;;;;;5031854;28;20490;-76
2023/02/12 05:36:28;;;;;;;14.73;7.13;;;;;;;;;;5031698;28;20033;-79
2023/02/12 05:38:57;;;;;;;15.23;7.33;;;;;;;;;;5029819;28;20056;-77
2023/02/12 05:41:24;;;;;;;13.10;6.57;;;;;;;;;;5029965;28;20033;-75
2023/02/12 05:43:50;;;;;;;13.60;6.33;;;;;;;;;;5030362;28;20033;-77
2023/02/12 05:46:17;;;;;;;12.97;6.30;;;;;;;;;;5030138;28;20049;-76
2023/02/12 05:48:42;;;;;;;14.83;7.07;;;;;;;;;;5030299;28;20029;-76
2023/02/12 05:51:14;;;;;;;11.50;6.20;;;;;;;;;;5029931;28;20392;-77
2023/02/12 05:53:41;;;;;;;13.15;6.43;;;;;;;;;;5029844;28;20391;-77
2023/02/12 05:56:14;;;;;;;14.27;6.17;;;;;;;;;;5014191;28;20120;-77
2023/02/12 05:58:41;;;;;;;14.73;6.90;;;;;;;;;;5030651;28;20037;-75
2023/02/12 06:01:13;;;;;;;24.73;8.83;;;;;;;;;;5029569;28;20543;-76
2023/02/12 06:03:39;;;;;;;20.70;7.82;;;;;;;;;;5013911;28;20029;-75
2023/02/12 06:06:04;;;;;;;18.03;7.47;;;;;;;;;;5030380;28;20036;-75
2023/02/12 06:08:30;;;;;;;14.87;7.37;;;;;;;;;;5029630;28;20053;-77
2023/02/12 06:11:00;;;;;;;15.97;7.60;;;;;;;;;;5031760;28;20384;-77
2023/02/12 06:13:25;;;;;;;19.63;8.80;;;;;;;;;;5030234;28;20021;-77
2023/02/12 06:15:51;;;;;;;25.53;8.63;;;;;;;;;;5029911;28;20040;-76
2023/02/12 06:18:16;;;;;;;29.00;9.40;;;;;;;;;;5031231;28;20469;-77
2023/02/12 06:20:42;;;;;;;22.00;9.10;;;;;;;;;;5029574;28;20059;-76
2023/02/12 06:23:07;;;;;;;20.10;8.17;;;;;;;;;;5031264;28;20087;-76
2023/02/12 06:25:33;;;;;;;16.87;8.63;;;;;;;;;;5031135;28;20025;-77
2023/02/12 06:27:58;;;;;;;20.50;9.20;;;;;;;;;;5029058;28;20474;-76
2023/02/12 06:30:24;;;;;;;23.67;8.97;;;;;;;;;;5029418;28;20036;-77
2023/02/12 06:32:49;;;;;;;92.30;20.33;;;;;;;;;;5029757;28;20025;-75
2023/02/12 06:35:15;;;;;;;26.47;10.17;;;;;;;;;;5031198;28;20025;-75
2023/02/12 06:37:41;;;;;;;19.07;8.90;;;;;;;;;;5030876;28;20087;-76
2023/02/12 06:40:07;;;;;;;19.83;8.43;;;;;;;;;;5030659;28;20077;-76
2023/02/12 06:42:32;;;;;;;29.93;20.10;;;;;;;;;;5028782;28;20061;-76
2023/02/12 06:44:58;;;;;;;19.93;10.90;;;;;;;;;;5029112;28;20136;-76
2023/02/12 06:47:23;;;;;;;22.07;8.60;;;;;;;;;;5030345;28;20026;-77
2023/02/12 06:49:49;;;;;;;20.27;8.70;;;;;;;;;;5029274;28;20021;-76
2023/02/12 06:52:14;;;;;;;36.00;10.43;;;;;;;;;;5028988;28;20057;-75
2023/02/12 06:54:40;;;;;;;19.77;9.07;;;;;;;;;;5030331;28;20035;-76
2023/02/12 06:57:05;;;;;;;16.63;8.57;;;;;;;;;;5030310;28;20060;-76
2023/02/12 06:59:31;;;;;;;18.53;9.20;;;;;;;;;;5028941;28;20553;-76
2023/02/12 07:01:56;;;;;;;17.27;8.70;;;;;;;;;;5030711;28;20033;-77
2023/02/12 07:04:22;;;;;;;23.13;10.60;;;;;;;;;;5030571;28;20026;-78
2023/02/12 07:06:48;;;;;;;19.70;10.07;;;;;;;;;;5031213;28;20290;-77
2023/02/12 07:09:13;;;;;;;20.20;10.40;;;;;;;;;;5030935;28;20034;-77
2023/02/12 07:11:39;;;;;;;24.27;10.30;;;;;;;;;;5030707;28;20091;-77
2023/02/12 07:14:07;;;;;;;23.97;10.40;;;;;;;;;;5029009;28;20481;-76
2023/02/12 07:16:32;;;;;;;25.97;9.80;;;;;;;;;;5030243;28;20083;-78
2023/02/12 07:18:59;;;;;;;21.67;11.03;;;;;;;;;;5029088;28;20029;-78
2023/02/12 07:21:24;;;;;;;23.13;10.97;;;;;;;;;;5030031;28;20367;-78
2023/02/12 07:23:52;;;;;;;21.13;10.83;;;;;;;;;;5029978;28;20098;-77
2023/02/12 07:26:19;;;;;;;21.10;10.57;;;;;;;;;;5028894;28;20025;-77
2023/02/12 07:28:44;;;;;;;26.50;12.30;;;;;;;;;;5028651;28;20033;-77
2023/02/12 07:31:13;;;;;;;28.63;12.50;;;;;;;;;;5030324;28;20041;-76
2023/02/12 07:33:40;;;;;;;21.97;12.20;;;;;;;;;;5029189;28;20034;-77
2023/02/12 07:36:08;;;;;;;23.27;11.70;;;;;;;;;;5029966;28;20131;-76
2023/02/12 07:38:38;;;;;;;26.33;12.83;;;;;;;;;;5029711;28;20055;-75
2023/02/12 07:41:08;;;;;;;25.63;11.47;;;;;;;;;;5033477;28;20160;-76
2023/02/12 07:43:33;;;;;;;26.50;10.83;;;;;;;;;;5032363;28;20030;-76
2023/02/12 07:46:15;;;;;;;22.30;11.00;;;;;;;;;;5034286;28;20044;-76
2023/02/12 07:48:41;;;;;;;;;;;;;;;;;;5033194;28;20037;-77
2023/02/12 07:51:09;;;;;;;26.07;11.77;;;;;;;;;;5034594;28;19913;-77
2023/02/12 07:53:36;;;;;;;28.53;12.03;;;;;;;;;;5034118;28;20060;-77
2023/02/12 07:56:05;;;;;;;19.67;10.43;;;;;;;;;;5032379;28;20064;-76
2023/02/12 07:58:31;;;;;;;22.27;11.00;;;;;;;;;;5032245;28;20103;-76
2023/02/12 08:00:56;;;;;;;18.10;9.67;;;;;;;;;;5032831;28;20424;-77
2023/02/12 08:03:22;;;;;;;20.20;11.77;;;;;;;;;;5032592;28;20040;-76
2023/02/12 08:05:47;;;;;;;22.00;10.47;;;;;;;;;;5032420;28;20018;-77
2023/02/12 08:08:13;;;;;;;23.97;10.53;;;;;;;;;;5033643;28;20054;-77
2023/02/12 08:10:38;;;;;;;20.53;12.23;;;;;;;;;;5032018;28;20118;-76
2023/02/12 08:13:04;;;;;;;20.20;10.90;;;;;;;;;;5033533;28;20040;-78
2023/02/12 08:15:29;;;;;;;21.57;10.33;;;;;;;;;;5032357;28;20040;-76
2023/02/12 08:17:55;;;;;;;23.33;11.23;;;;;;;;;;5033404;28;20067;-78
2023/02/12 08:20:20;;;;;;;23.67;10.30;;;;;;;;;;5033639;28;20029;-77
2023/02/12 08:22:46;;;;;;;23.10;10.53;;;;;;;;;;5033906;28;20029;-76
2023/02/12 08:25:11;;;;;;;21.03;11.17;;;;;;;;;;5033109;28;20217;-77
2023/02/12 08:27:40;;;;;;;20.77;10.70;;;;;;;;;;5033194;28;20460;-77
2023/02/12 08:30:06;;;;;;;23.43;11.30;;;;;;;;;;5033401;28;20026;-77
2023/02/12 08:32:32;;;;;;;22.93;11.53;;;;;;;;;;5033060;28;20037;-77
2023/02/12 08:34:58;;;;;;;21.00;10.93;;;;;;;;;;5015554;28;20473;-78
2023/02/12 08:37:23;;;;;;;20.40;10.80;;;;;;;;;;5032182;28;20030;-75
2023/02/12 08:39:49;;;;;;;25.37;11.70;;;;;;;;;;5015864;28;20447;-77
2023/02/12 08:42:14;;;;;;;25.80;11.47;;;;;;;;;;5013339;28;20032;-78
2023/02/12 08:44:42;;;;;;;24.07;12.90;;;;;;;;;;5011900;28;20490;-78
2023/02/12 08:47:08;;;;;;;26.60;12.27;;;;;;;;;;5012513;28;20088;-76
2023/02/12 08:49:34;;;;;;;26.03;12.07;;;;;;;;;;5012699;28;20128;-78
2023/02/12 08:52:01;;;;;;;26.80;13.60;;;;;;;;;;5012625;28;20057;-76
2023/02/12 08:54:28;;;;;;;25.17;12.50;;;;;;;;;;5013364;28;20018;-78
2023/02/12 08:57:00;;;;;;;24.77;12.57;;;;;;;;;;5012199;28;20401;-77
2023/02/12 08:59:26;;;;;;;34.90;14.43;;;;;;;;;;5012018;28;20096;-78
2023/02/12 09:01:52;;;;;;;22.77;11.83;;;;;;;;;;5011906;28;20429;-78
2023/02/12 09:04:21;;;;;;;26.87;12.73;;;;;;;;;;5013189;28;20030;-78
2023/02/12 09:06:47;;;;;;;26.83;12.73;;;;;;;;;;5011810;28;20034;-78
2023/02/12 09:09:13;;;;;;;20.83;11.87;;;;;;;;;;5012119;28;20107;-78
2023/02/12 09:11:39;;;;;;;26.05;12.45;;;;;;;;;;5013194;28;20108;-77
2023/02/12 09:14:08;;;;;;;25.83;12.97;;;;;;;;;;5013204;28;20550;-80
2023/02/12 09:16:35;;;;;;;23.50;12.27;;;;;;;;;;5011513;28;20022;-78
2023/02/12 09:19:01;;;;;;;22.90;12.23;;;;;;;;;;4995116;28;20029;-76
2023/02/12 09:21:27;;;;;;;24.33;13.70;;;;;;;;;;5011481;28;20038;-77
2023/02/12 09:23:53;;;;;;;26.80;12.63;;;;;;;;;;5012743;28;20401;-76
2023/02/12 09:26:21;;;;;;;23.17;11.43;;;;;;;;;;5012894;28;20033;-77
2023/02/12 09:28:49;;;;;;;22.25;11.40;;;;;;;;;;5011195;28;20034;-76
2023/02/12 09:31:21;;;;;;;26.13;12.83;;;;;;;;;;5012815;28;20492;-77
2023/02/12 09:33:48;;;;;;;30.75;15.13;;;;;;;;;;5012690;28;20326;-76
2023/02/12 09:36:15;;;;;;;26.20;12.23;;;;;;;;;;5012348;28;20041;-78
2023/02/12 09:38:41;;;;;;;21.48;11.38;;;;;;;;;;5011948;28;20038;-77
2023/02/12 09:41:32;;;;;;;27.45;14.15;;;;;;;;;;5011021;28;20045;-78
2023/02/12 09:44:16;;;;;;;18.30;11.07;;;;;;;;;;5011205;28;20437;-77
2023/02/12 09:47:00;;;;;;;21.47;10.47;;;;;;;;;;5010314;28;20030;-77
2023/02/12 09:49:43;;;;;;;25.15;13.10;;;;;;;;;;5010977;28;20026;-77
2023/02/12 09:52:16;;;;;;;22.95;11.43;;;;;;;;;;5010687;28;20101;-77
2023/02/12 09:54:43;;;;;;;26.08;10.57;;;;;;;;;;5012009;28;20457;-77
2023/02/12 09:57:24;;;;;;;23.52;12.20;;;;;;;;;;5010606;28;20441;-78
2023/02/12 10:00:09;;;;;;;25.50;12.25;;;;;;;;;;5010438;28;20085;-76
2023/02/12 10:02:37;;;;;;;23.38;12.38;;;;;;;;;;5010683;28;20033;-78
2023/02/12 10:05:04;;;;;;;24.38;10.80;;;;;;;;;;5010550;28;20045;-76
2023/02/12 10:07:52;;;;;;;24.83;12.53;;;;;;;;;;5011107;28;20029;-75
2023/02/12 10:10:26;;;;;;;23.88;11.70;;;;;;;;;;5012133;28;20068;-77
2023/02/12 10:13:05;;;;;;;27.73;12.82;;;;;;;;;;5011429;28;20033;-78
2023/02/12 10:15:38;;;;;;;23.35;11.90;;;;;;;;;;5010879;28;20026;-78
2023/02/12 10:18:13;;;;;;;21.90;12.82;;;;;;;;;;5010259;28;20026;-78
2023/02/12 10:20:51;;;;;;;21.23;11.35;;;;;;;;;;5010124;28;20062;-77
2023/02/12 10:23:35;;;;;;;21.23;10.88;;;;;;;;;;5009997;28;20022;-77
2023/02/12 10:26:28;;;;;;;29.45;12.43;;;;;;;;;;5009955;28;20026;-76
2023/02/12 10:28:56;;;;;;;22.55;12.68;;;;;;;;;;5005923;28;20120;-78
2023/02/12 10:31:36;;;;;;;22.05;11.05;;;;;;;;;;5009934;28;20030;-77
2023/02/12 10:34:13;;;;;;;22.75;11.90;;;;;;;;;;5010293;28;20084;-77
2023/02/12 10:36:42;;;;;;;24.17;11.82;;;;;;;;;;5009986;28;20466;-78
2023/02/12 10:39:14;;;;;;;20.88;10.82;;;;;;;;;;5022519;28;20437;-76
2023/02/12 10:41:51;;;;;;;18.23;10.35;;;;;;;;;;5028974;28;20037;-77
2023/02/12 10:44:16;;;;;;;21.15;11.68;;;;;;;;;;5029785;28;20053;-75
2023/02/12 10:46:42;;;;;;;24.02;10.85;;;;;;;;;;5029512;28;20437;-75
2023/02/12 10:49:12;;;;;;;23.77;11.35;;;;;;;;;;5029898;28;20028;-76
2023/02/12 10:52:15;;;;;;;21.35;10.98;;;;;;;;;;5029567;28;20026;-77
2023/02/12 10:54:43;;;;;;;23.30;11.25;;;;;;;;;;5029326;28;20030;-76
2023/02/12 10:57:24;;;;;;;21.65;11.48;;;;;;;;;;5030933;28;20105;-77
2023/02/12 10:59:56;;;;;;;19.33;10.35;;;;;;;;;;5029256;28;20068;-76
2023/02/12 11:02:30;;;;;;;20.70;9.77;;;;;;;;;;5029350;28;20025;-76
2023/02/12 11:04:58;;;;;;;19.90;10.63;;;;;;;;;;5029106;28;20026;-76
2023/02/12 11:07:24;;;;;;;21.17;10.52;;;;;;;;;;5029239;28;20030;-76
2023/02/12 11:09:52;;;;;;;21.30;10.77;;;;;;;;;;5029397;28;20033;-78
2023/02/12 11:12:50;;;;;;;25.15;11.68;;;;;;;;;;5013865;28;20059;-78
2023/02/12 11:15:19;;;;;;;24.02;12.43;;;;;;;;;;4999449;28;20124;-77
2023/02/12 11:18:01;;;;;;;22.70;11.38;;;;;;;;;;5034526;28;20040;-78
2023/02/12 11:20:40;;;;;;;23.60;11.20;;;;;;;;;;5034697;28;20041;-76
2023/02/12 11:23:23;;;;;;;21.50;10.25;;;;;;;;;;5033171;28;20494;-77
2023/02/12 11:25:57;;;;;;;21.77;9.88;;;;;;;;;;5032632;28;20026;-78
2023/02/12 11:28:23;;;;;;;20.77;9.27;;;;;;;;;;5032810;28;20028;-77
2023/02/12 11:30:54;;;;;;;22.50;10.40;;;;;;;;;;5032592;28;20026;-77
2023/02/12 11:33:24;;;;;;;20.60;9.98;;;;;;;;;;5034674;28;20424;-76
2023/02/12 11:35:53;;;;;;;19.60;9.48;;;;;;;;;;5032893;28;20505;-77
2023/02/12 11:38:32;;;;;;;48.72;13.57;;;;;;;;;;5029589;28;20022;-78
2023/02/12 11:41:23;;;;;;;18.52;9.57;;;;;;;;;;5012618;28;20081;-78
2023/02/12 11:43:49;;;;;;;18.75;9.18;;;;;;;;;;5012738;28;20537;-79
2023/02/12 11:46:22;;;;;;;20.95;9.82;;;;;;;;;;5014360;28;20095;-78
2023/02/12 11:48:49;;;;;;;16.92;9.45;;;;;;;;;;5012652;28;20113;-77
2023/02/12 11:51:21;;;;;;;19.08;9.02;;;;;;;;;;5013084;28;20437;-77
2023/02/12 11:53:50;;;;;;;19.38;8.85;;;;;;;;;;5013109;28;20384;-77
2023/02/12 11:56:17;;;;;;;20.05;9.52;;;;;;;;;;5013223;28;20022;-79
2023/02/12 11:58:44;;;;;;;17.73;9.32;;;;;;;;;;5013485;28;20026;-76
2023/02/12 12:01:25;;;;;;;20.50;10.30;;;;;;;;;;5013199;28;20516;-78
2023/02/12 12:04:11;;;;;;;21.85;11.00;;;;;;;;;;5013104;28;20037;-79
2023/02/12 12:06:45;;;;;;;20.42;9.25;;;;;;;;;;5013968;28;20336;-77
2023/02/12 12:09:47;;;;;;;26.77;10.23;;;;;;;;;;5013269;28;20040;-78
2023/02/12 12:12:20;;;;;;;15.55;7.57;;;;;;;;;;5014362;28;20034;-77
2023/02/12 12:21:10;;;;;;;21.30;9.68;;;;;;;;;;5013124;28;20505;-76
2023/02/12 12:23:48;;;;;;;19.95;9.15;;;;;;;;;;5011967;28;20045;-78
2023/02/12 12:26:23;;;;;;;23.25;9.82;;;;;;;;;;5012576;28;20470;-77
2023/02/12 12:29:20;;;;;;;31.60;15.80;;;;;;;;;;5013622;28;20029;-76
2023/02/12 12:31:49;;;;;;;20.55;10.02;;;;;;;;;;5011826;28;20018;-77
2023/02/12 12:34:23;;;;;;;23.25;9.65;;;;;;;;;;5013112;28;20018;-77
2023/02/12 12:37:07;;;;;;;19.90;10.52;;;;;;;;;;5011634;28;20042;-79
2023/02/12 12:39:58;;;;;;;19.73;10.07;;;;;;;;;;5012926;28;20046;-78
2023/02/12 12:42:26;;;;;;;23.65;11.10;;;;;;;;;;5013053;28;20793;-78
2023/02/12 12:45:03;;;;;;;19.40;10.25;;;;;;;;;;5011529;28;20033;-77
2023/02/12 12:47:54;;;;;;;25.35;11.35;;;;;;;;;;5013093;28;20026;-79
2023/02/12 12:50:23;;;;;;;30.67;12.63;;;;;;;;;;5012126;28;20397;-80
2023/02/12 12:53:10;;;;;;;25.02;11.57;;;;;;;;;;5012011;28;20366;-76
2023/02/12 12:55:57;;;;;;;25.52;12.18;;;;;;;;;;5011353;28;20474;-78
2023/02/12 12:58:35;;;;;;;24.50;10.55;;;;;;;;;;5011303;28;20474;-77
2023/02/12 13:01:38;;;;;;;33.45;14.07;;;;;;;;;;5012682;28;20030;-79
2023/02/12 13:04:38;;;;;;;23.20;11.25;;;;;;;;;;5010971;28;20029;-77
2023/02/12 13:07:31;;;;;;;22.25;10.88;;;;;;;;;;5011358;28;20060;-78
2023/02/12 13:10:00;;;;;;;18.95;10.55;;;;;;;;;;5011288;28;20525;-78
2023/02/12 13:12:56;;;;;;;22.55;11.65;;;;;;;;;;5012844;28;20022;-78
2023/02/12 13:15:40;;;;;;;22.58;10.35;;;;;;;;;;5012932;28;20022;-77
2023/02/12 13:18:42;;;;;;;30.35;10.93;;;;;;;;;;5012487;28;20022;-77
2023/02/12 13:21:41;;;;;;;21.52;10.13;;;;;;;;;;5012335;28;20509;-78
2023/02/12 13:24:33;;;;;;;26.17;11.52;;;;;;;;;;5010873;28;20037;-78
2023/02/12 13:27:06;;;;;;;22.13;10.90;;;;;;;;;;5012096;28;20026;-78
2023/02/12 13:29:40;;;;;;;19.98;10.20;;;;;;;;;;5012094;28;20112;-78
2023/02/12 13:32:19;;;;;;;26.40;10.48;;;;;;;;;;5010629;28;20049;-77
2023/02/12 13:34:45;;;;;;;22.52;10.90;;;;;;;;;;5010526;28;20043;-76
2023/02/12 13:37:18;;;;;;;25.17;10.55;;;;;;;;;;5010236;28;20033;-77
2023/02/12 13:39:46;;;;;;;25.63;10.63;;;;;;;;;;5027642;28;20049;-78
2023/02/12 13:42:20;;;;;;;23.70;10.77;;;;;;;;;;5031649;28;20099;-78
2023/02/12 13:45:19;;;;;;;23.75;10.57;;;;;;;;;;5029811;28;20025;-78
2023/02/12 13:48:06;;;;;;;26.75;11.30;;;;;;;;;;5031812;28;20108;-78
2023/02/12 13:50:48;;;;;;;20.67;10.23;;;;;;;;;;5031724;28;20064;-76
2023/02/12 13:53:31;;;;;;;22.35;10.88;;;;;;;;;;5031500;28;20489;-78
2023/02/12 13:56:35;;;;;;;29.13;11.27;;;;;;;;;;5029604;28;20104;-76
2023/02/12 13:59:01;;;;;;;22.70;11.00;;;;;;;;;;5028651;28;20061;-79
2023/02/12 14:01:42;;;;;;;25.20;11.50;;;;;;;;;;5030117;28;20264;-78
2023/02/12 14:04:37;;;;;;;32.35;11.55;;;;;;;;;;5031223;28;20022;-77
2023/02/12 14:07:06;;;;;;;30.50;11.07;;;;;;;;;;5011709;28;20047;-78
2023/02/12 14:09:37;;;;;;;25.13;10.65;;;;;;;;;;5029882;28;20080;-79
2023/02/12 14:12:25;;;;;;;31.23;11.15;;;;;;;;;;5029918;28;20033;-76
2023/02/12 14:15:06;;;;;;;26.10;10.10;;;;;;;;;;5021203;28;20037;-77
2023/02/12 14:17:32;;;;;;;20.93;9.17;;;;;;;;;;5030280;28;20051;-79
2023/02/12 14:20:24;;;;;;;19.35;9.00;;;;;;;;;;5030598;28;20268;-76
2023/02/12 14:22:49;;;;;;;19.27;8.18;;;;;;;;;;5029007;28;20063;-76
2023/02/12 14:25:24;;;;;;;18.58;8.30;;;;;;;;;;5029291;28;20065;-78
2023/02/12 14:28:20;;;;;;;23.48;8.88;;;;;;;;;;5030642;28;20370;-76
2023/02/12 14:31:17;;;;;;;24.40;8.07;;;;;;;;;;5025298;28;20087;-78
2023/02/12 14:33:44;;;;;;;23.70;6.75;;;;;;;;;;5028974;28;20021;-77
2023/02/12 14:36:39;;;;;;;23.02;7.28;;;;;;;;;;5029299;28;20104;-76
2023/02/12 14:39:24;;;;;;;13.60;5.40;;;;;;;;;;5017904;28;20057;-79
2023/02/12 14:41:56;;;;;;;11.82;5.38;;;;;;;;;;5009378;28;20028;-77
2023/02/12 14:44:22;;;;;;;19.42;6.95;;;;;;;;;;5011447;28;20113;-78
2023/02/12 14:46:50;;;;;;;23.58;6.00;;;;;;;;;;5009393;28;20492;-76
2023/02/12 14:49:38;;;;;;;17.95;5.30;;;;;;;;;;5009671;28;20509;-78
2023/02/12 14:52:11;;;;;;;17.00;4.80;;;;;;;;;;5009069;28;20022;-76
2023/02/12 14:55:00;;;;;;;13.75;4.07;;;;;;;;;;5009501;28;20025;-77
2023/02/12 14:57:38;;;;;;;17.85;4.28;;;;;;;;;;5012053;28;20048;-77
2023/02/12 15:00:26;;;;;;;15.48;4.20;;;;;;;;;;5009546;28;20030;-77
2023/02/12 15:03:16;;;;;;;12.32;3.67;;;;;;;;;;5010906;28;20025;-76
2023/02/12 15:06:13;;;;;;;14.05;3.78;;;;;;;;;;5009499;28;20026;-78